Time;durP1;ratioP1;P1;durP2;ratioP2;P2;SDS_P1;SDS_P2;PMS_P1;PMS_P2;Temp;Humidity;BMP_temperature;BMP_pressure;BME280_temperature;BME280_humidity;BME280_pressure;Samples;Min_cycle;Max_cycle;Signal;HPM_P1;HPM_P2
2022/04/08 00:01:02;;;;;;;9.37;1.67;;;;;;;-145.69;100.00;71117.84;5052654;28;20208;-75
2022/04/08 00:03:28;;;;;;;6.53;2.00;;;;;;;-145.69;100.00;71107.91;5053266;28;20195;-75
2022/04/08 00:05:55;;;;;;;6.07;1.50;;;;;;;-145.69;100.00;71115.88;5052988;28;20226;-75
2022/04/08 00:08:22;;;;;;;9.03;1.27;;;;;;;-145.69;100.00;71127.81;5052773;28;20207;-76
2022/04/08 00:10:49;;;;;;;9.33;1.40;;;;;;;-145.69;100.00;71139.75;5052947;28;20196;-75
2022/04/08 00:13:17;;;;;;;6.80;1.33;;;;;;;-145.69;100.00;71145.72;5052763;28;20231;-75
2022/04/08 00:15:43;;;;;;;7.93;1.17;;;;;;;-145.69;100.00;71143.72;5053055;28;20206;-75
2022/04/08 00:18:12;;;;;;;11.33;1.70;;;;;;;-145.69;100.00;71143.72;5053076;28;20378;-75
2022/04/08 00:20:39;;;;;;;4.57;1.20;;;;;;;-145.69;100.00;71139.75;5052362;28;20605;-75
2022/04/08 00:23:06;;;;;;;12.07;1.98;;;;;;;-145.69;100.00;71139.75;5051584;28;20446;-75
2022/04/08 00:25:32;;;;;;;14.37;2.20;;;;;;;-145.69;100.00;71143.72;5067127;28;20693;-75
2022/04/08 00:27:58;;;;;;;7.10;1.73;;;;;;;-145.69;100.00;71137.75;5072725;28;20252;-75
2022/04/08 00:30:25;;;;;;;6.80;1.60;;;;;;;-145.69;100.00;71143.72;5072954;28;20202;-75
2022/04/08 00:32:52;;;;;;;3.87;1.60;;;;;;;-145.69;100.00;71141.72;5072891;28;20209;-75
2022/04/08 00:35:19;;;;;;;5.87;1.17;;;;;;;-145.69;100.00;71151.69;5072758;28;20205;-75
2022/04/08 00:37:46;;;;;;;4.30;1.47;;;;;;;-145.69;100.00;71143.72;5072636;28;20209;-75
2022/04/08 00:40:12;;;;;;;13.83;1.80;;;;;;;-145.69;100.00;71159.63;5072150;28;20226;-75
2022/04/08 00:42:40;;;;;;;7.10;1.30;;;;;;;-145.69;100.00;71139.75;5071832;28;20202;-75
2022/04/08 00:45:07;;;;;;;10.13;1.63;;;;;;;-145.69;100.00;71151.69;5072836;28;20230;-75
2022/04/08 00:47:35;;;;;;;5.30;1.47;;;;;;;-145.69;100.00;71143.72;5072649;28;20206;-75
2022/04/08 00:50:02;;;;;;;12.43;2.43;;;;;;;-145.69;100.00;71159.63;5072623;28;20198;-75
2022/04/08 00:52:31;;;;;;;7.83;2.00;;;;;;;-145.69;100.00;71163.63;5072687;28;20203;-75
2022/04/08 00:54:57;;;;;;;5.53;1.40;;;;;;;-145.69;100.00;71135.75;5071623;28;20225;-75
2022/04/08 00:57:24;;;;;;;8.30;1.70;;;;;;;-145.69;100.00;71131.78;5072776;28;20206;-75
2022/04/08 00:59:51;;;;;;;7.45;1.63;;;;;;;-145.69;100.00;71139.75;5071497;28;20445;-75
2022/04/08 01:02:18;;;;;;;6.60;1.33;;;;;;;-145.69;100.00;71145.72;5072579;28;20198;-76
2022/04/08 01:04:45;;;;;;;9.20;1.20;;;;;;;-145.69;100.00;71135.75;5072487;28;20202;-75
2022/04/08 01:07:11;;;;;;;5.47;1.43;;;;;;;-145.69;100.00;71139.75;5072143;28;20199;-75
2022/04/08 01:09:39;;;;;;;6.77;1.50;;;;;;;-145.69;100.00;71159.63;5072182;28;20611;-75
2022/04/08 01:12:06;;;;;;;4.50;1.50;;;;;;;-145.69;100.00;71151.69;5072595;28;20206;-75
2022/04/08 01:14:32;;;;;;;4.13;1.17;;;;;;;-145.69;100.00;71163.63;5075008;28;20723;-75
2022/04/08 01:16:59;;;;;;;6.23;1.20;;;;;;;-145.69;100.00;71175.56;5076542;28;20202;-75
2022/04/08 01:19:25;;;;;;;10.37;1.30;;;;;;;-145.69;100.00;71179.53;5076245;28;20248;-75
2022/04/08 01:21:52;;;;;;;7.10;1.33;;;;;;;-145.69;100.00;71175.56;5075974;28;20716;-76
2022/04/08 01:24:22;;;;;;;7.43;1.53;;;;;;;-145.69;100.00;71195.47;5075691;28;20654;-75
2022/04/08 01:26:52;;;;;;;4.07;0.93;;;;;;;-145.69;100.00;71197.44;5075870;28;20234;-75
2022/04/08 01:29:18;;;;;;;5.37;1.20;;;;;;;-145.69;100.00;71179.53;5076280;28;20198;-75
2022/04/08 01:31:45;;;;;;;6.37;1.10;;;;;;;-145.69;100.00;71193.47;5075763;28;20191;-76
2022/04/08 01:34:12;;;;;;;8.33;1.03;;;;;;;-145.69;100.00;71195.47;5075852;28;20209;-75
2022/04/08 01:36:38;;;;;;;8.33;1.47;;;;;;;-145.69;100.00;71199.44;5075662;28;20199;-76
2022/04/08 01:39:05;;;;;;;9.30;1.10;;;;;;;-145.69;99.24;71199.44;5075266;28;20206;-76
2022/04/08 01:41:31;;;;;;;7.23;0.90;;;;;;;-145.69;100.00;71201.41;5075734;28;20210;-75
2022/04/08 01:44:00;;;;;;;3.60;1.13;;;;;;;-145.69;100.00;71199.44;5075669;28;20290;-75
2022/04/08 01:46:26;;;;;;;8.80;1.57;;;;;;;-145.69;100.00;71215.34;5075674;28;20231;-75
2022/04/08 01:48:54;;;;;;;7.87;1.00;;;;;;;-145.69;100.00;71223.31;5075467;28;20206;-75
2022/04/08 01:51:21;;;;;;;5.50;1.07;;;;;;;-145.69;100.00;71221.31;5075678;28;20264;-75
2022/04/08 01:53:47;;;;;;;7.33;1.20;;;;;;;-145.69;100.00;71219.34;5074648;28;20588;-75
2022/04/08 01:56:14;;;;;;;9.43;1.40;;;;;;;-145.69;100.00;71233.25;5062985;28;20202;-76
2022/04/08 01:58:41;;;;;;;6.07;1.53;;;;;;;-145.69;100.00;71227.28;5074937;28;20207;-76
2022/04/08 02:01:08;;;;;;;3.83;1.13;;;;;;;-145.69;100.00;71231.28;5075418;28;20199;-75
2022/04/08 02:03:35;;;;;;;3.07;1.00;;;;;;;-145.69;100.00;71243.22;5074213;28;20249;-76
2022/04/08 02:06:01;;;;;;;3.03;1.00;;;;;;;-145.69;100.00;71247.19;5075067;28;20234;-75
2022/04/08 02:08:28;;;;;;;7.80;1.23;;;;;;;-145.69;100.00;71247.19;5075459;28;20252;-75
2022/04/08 02:10:54;;;;;;;6.53;1.40;;;;;;;-145.69;100.00;71247.19;5075033;28;20589;-76
2022/04/08 02:13:21;;;;;;;2.40;0.90;;;;;;;-145.69;100.00;71245.19;5075068;28;20235;-76
2022/04/08 02:15:48;;;;;;;3.40;1.00;;;;;;;-145.69;100.00;71235.25;5075187;28;20211;-76
2022/04/08 02:18:15;;;;;;;6.28;1.48;;;;;;;-145.69;100.00;71239.22;5074292;28;20438;-75
2022/04/08 02:20:43;;;;;;;8.37;1.33;;;;;;;-145.69;100.00;71247.19;5075161;28;20733;-75
2022/04/08 02:23:09;;;;;;;6.00;1.40;;;;;;;-145.69;100.00;71251.16;5074713;28;20294;-76
2022/04/08 02:25:36;;;;;;;2.57;0.90;;;;;;;-145.69;100.00;71251.16;5074480;28;20234;-75
2022/04/08 02:28:04;;;;;;;6.70;1.53;;;;;;;-145.69;100.00;71251.16;5074911;28;20256;-76
2022/04/08 02:30:31;;;;;;;5.33;1.23;;;;;;;-145.69;100.00;71257.13;5074711;28;20253;-76
2022/04/08 02:33:01;;;;;;;3.93;1.40;;;;;;;-145.69;100.00;71247.19;5074812;28;20256;-76
2022/04/08 02:35:29;;;;;;;6.17;1.23;;;;;;;-145.69;100.00;71235.25;5074678;28;20543;-75
2022/04/08 02:37:56;;;;;;;10.90;1.50;;;;;;;-145.69;100.00;71243.22;5074788;28;20202;-75
2022/04/08 02:40:22;;;;;;;11.73;1.67;;;;;;;-145.69;100.00;71249.19;5074469;28;20203;-76
2022/04/08 02:42:48;;;;;;;26.07;7.07;;;;;;;-145.69;100.00;71251.16;5074580;28;20199;-75
2022/04/08 02:45:15;;;;;;;5.87;1.90;;;;;;;-145.69;100.00;71251.16;5074307;28;20208;-75
2022/04/08 02:47:42;;;;;;;5.07;1.00;;;;;;;-145.69;100.00;71237.25;5074777;28;20210;-76
2022/04/08 02:50:09;;;;;;;6.00;1.50;;;;;;;-145.69;100.00;71239.22;5074426;28;20584;-75
2022/04/08 02:52:37;;;;;;;10.80;1.90;;;;;;;-145.69;100.00;71259.13;5074514;28;20199;-75
2022/04/08 02:55:04;;;;;;;5.57;1.37;;;;;;;-145.69;100.00;71259.13;5073832;28;20207;-75
2022/04/08 02:57:31;;;;;;;6.53;1.57;;;;;;;-145.69;100.00;71267.09;5074354;28;20211;-76
2022/04/08 02:59:59;;;;;;;10.13;1.77;;;;;;;-145.69;100.00;71265.09;5074176;28;20202;-76
2022/04/08 03:02:26;;;;;;;7.53;1.53;;;;;;;-145.69;100.00;71275.03;5074388;28;20198;-75
2022/04/08 03:04:53;;;;;;;8.17;1.73;;;;;;;-145.69;100.00;71267.09;5073833;28;20206;-75
2022/04/08 03:07:19;;;;;;;8.83;1.50;;;;;;;-145.69;100.00;71271.06;5073037;28;20317;-76
2022/04/08 03:09:47;;;;;;;7.83;1.10;;;;;;;-145.69;100.00;71275.03;5074138;28;20256;-75
2022/04/08 03:12:14;;;;;;;2.70;1.00;;;;;;;-145.69;100.00;71283.00;5074264;28;20199;-76
2022/04/08 03:14:40;;;;;;;11.37;1.40;;;;;;;-145.69;100.00;71294.94;5073749;28;20250;-75
2022/04/08 03:17:06;;;;;;;10.73;1.80;;;;;;;-145.69;100.00;71277.03;5074210;28;20203;-75
2022/04/08 03:19:33;;;;;;;10.00;1.43;;;;;;;-145.69;100.00;71281.00;5073724;28;20202;-75
2022/04/08 03:22:00;;;;;;;3.40;1.27;;;;;;;-145.69;100.00;71285.00;5073899;28;20566;-75
2022/04/08 03:24:26;;;;;;;9.80;1.40;;;;;;;-145.69;100.00;71302.91;5072586;28;20226;-75
2022/04/08 03:26:54;;;;;;;7.27;1.63;;;;;;;-145.69;100.00;71306.88;5073511;28;20620;-76
2022/04/08 03:29:20;;;;;;;8.50;1.50;;;;;;;-145.69;100.00;71320.81;5073898;28;20260;-75
2022/04/08 03:31:47;;;;;;;7.87;1.57;;;;;;;-145.69;100.00;71322.81;5073786;28;20203;-75
2022/04/08 03:34:13;;;;;;;8.67;1.37;;;;;;;-145.69;100.00;71318.81;5073751;28;20203;-75
2022/04/08 03:36:40;;;;;;;7.50;1.67;;;;;;;-145.69;100.00;71314.84;5072922;28;20252;-75
2022/04/08 03:39:08;;;;;;;8.33;1.30;;;;;;;-145.69;100.00;71314.84;5073469;28;20202;-75
2022/04/08 03:41:35;;;;;;;4.97;1.03;;;;;;;-145.69;100.00;71314.84;5073088;28;20194;-75
2022/04/08 03:44:03;;;;;;;7.87;2.00;;;;;;;-145.69;100.00;71326.78;5073650;28;20206;-76
2022/04/08 03:46:29;;;;;;;8.40;1.30;;;;;;;-145.69;100.00;71314.84;5073362;28;20222;-75
2022/04/08 03:48:56;;;;;;;8.43;1.50;;;;;;;-145.69;100.00;71314.84;5062807;28;20195;-76
2022/04/08 03:51:22;;;;;;;3.97;1.23;;;;;;;-145.69;100.00;71314.84;5052861;28;20540;-76
2022/04/08 03:53:48;;;;;;;6.60;1.40;;;;;;;-145.69;100.00;71320.81;5053314;28;20196;-75
2022/04/08 03:56:15;;;;;;;4.23;1.70;;;;;;;-145.69;100.00;71322.81;5053178;28;20203;-76
2022/04/08 03:58:41;;;;;;;11.37;1.60;;;;;;;-145.69;100.00;71324.78;5053113;28;20583;-76
2022/04/08 04:01:09;;;;;;;4.50;1.13;;;;;;;-145.69;100.00;71314.84;5073008;28;20252;-76
2022/04/08 04:03:35;;;;;;;7.70;1.53;;;;;;;-145.69;100.00;71322.81;5073251;28;20206;-75
2022/04/08 04:06:03;;;;;;;9.20;2.00;;;;;;;-145.69;100.00;71324.78;5072996;28;20636;-76
2022/04/08 04:08:29;;;;;;;7.77;1.50;;;;;;;-145.69;100.00;71334.75;5073387;28;20199;-76
2022/04/08 04:10:56;;;;;;;4.90;1.03;;;;;;;-145.69;100.00;71334.75;5071261;28;20199;-75
2022/04/08 04:13:22;;;;;;;7.05;1.20;;;;;;;-145.69;100.00;71334.75;5072409;28;20456;-75
2022/04/08 04:15:49;;;;;;;3.23;1.33;;;;;;;-145.69;100.00;71338.72;5073036;28;20198;-75
2022/04/08 04:18:16;;;;;;;6.17;1.37;;;;;;;-145.69;100.00;71338.72;5072956;28;20654;-75
2022/04/08 04:20:43;;;;;;;6.63;1.20;;;;;;;-145.69;100.00;71342.69;5073036;28;20248;-75
2022/04/08 04:23:09;;;;;;;8.83;1.30;;;;;;;-145.69;100.00;71348.66;5072924;28;20696;-75
2022/04/08 04:25:36;;;;;;;5.40;1.10;;;;;;;-145.69;100.00;71350.66;5072967;28;20202;-76
2022/04/08 04:28:03;;;;;;;8.97;1.10;;;;;;;-145.69;100.00;71354.63;5072998;28;20248;-75
2022/04/08 04:30:29;;;;;;;8.20;1.40;;;;;;;-145.69;100.00;71340.72;5072919;28;20618;-75
2022/04/08 04:32:56;;;;;;;6.73;1.40;;;;;;;-145.69;100.00;71346.69;5072806;28;20667;-76
2022/04/08 04:35:24;;;;;;;2.47;0.87;;;;;;;-145.69;100.00;71350.66;5073115;28;20707;-75
2022/04/08 04:37:50;;;;;;;3.77;1.20;;;;;;;-145.69;100.00;71358.63;5072821;28;20202;-76
2022/04/08 04:40:17;;;;;;;3.70;1.10;;;;;;;-145.69;100.00;71366.56;5072677;28;20653;-76
2022/04/08 04:42:43;;;;;;;5.05;1.60;;;;;;;-145.69;100.00;71372.53;5071854;28;20552;-76
2022/04/08 04:45:11;;;;;;;4.40;1.27;;;;;;;-145.69;100.00;71370.56;5072784;28;20202;-76
2022/04/08 04:47:38;;;;;;;2.57;1.03;;;;;;;-145.69;100.00;71378.50;5074120;28;20230;-76
2022/04/08 04:50:05;;;;;;;10.90;1.30;;;;;;;-145.69;100.00;71374.53;5076761;28;20201;-75
2022/04/08 04:52:33;;;;;;;7.10;1.50;;;;;;;-145.69;100.00;71374.53;5076595;28;20293;-76
2022/04/08 04:54:59;;;;;;;3.00;1.13;;;;;;;-145.69;100.00;71382.50;5076986;28;20248;-75
2022/04/08 04:57:26;;;;;;;2.90;1.00;;;;;;;-145.69;100.00;71384.47;5076666;28;20198;-76
2022/04/08 04:59:53;;;;;;;3.70;1.00;;;;;;;-145.69;100.00;71386.47;5076314;28;20226;-75
2022/04/08 05:02:19;;;;;;;4.93;1.40;;;;;;;-145.69;100.00;71394.44;5076703;28;20210;-75
2022/04/08 05:04:45;;;;;;;2.50;1.20;;;;;;;-145.69;100.00;71394.44;5076264;28;20198;-76
2022/04/08 05:07:12;;;;;;;7.73;1.10;;;;;;;-145.69;100.00;71402.41;5076588;28;20287;-75
2022/04/08 05:09:40;;;;;;;6.23;1.37;;;;;;;-145.69;100.00;71414.34;5076580;28;20213;-75
2022/04/08 05:12:08;;;;;;;9.33;1.53;;;;;;;-145.69;100.00;71426.28;5076436;28;20248;-75
2022/04/08 05:14:35;;;;;;;7.37;2.07;;;;;;;-145.69;100.00;71418.31;5070537;28;20231;-75
2022/04/08 05:17:01;;;;;;;6.23;1.07;;;;;;;-145.69;100.00;71426.28;5074498;28;20207;-75
2022/04/08 05:19:28;;;;;;;6.30;1.13;;;;;;;-145.69;100.00;71430.25;5076115;28;20198;-75
2022/04/08 05:21:54;;;;;;;6.20;2.00;;;;;;;-145.69;100.00;71436.22;5076213;28;20245;-75
2022/04/08 05:24:21;;;;;;;3.47;1.40;;;;;;;-145.69;100.00;71436.22;5075179;28;20203;-75
2022/04/08 05:26:48;;;;;;;4.30;1.53;;;;;;;-145.69;100.00;71438.22;5075301;28;20296;-75
2022/04/08 05:29:15;;;;;;;4.23;1.50;;;;;;;-145.69;100.00;71438.22;5075603;28;20208;-75
2022/04/08 05:31:42;;;;;;;5.57;1.30;;;;;;;-145.69;100.00;71438.22;5075505;28;20206;-75
2022/04/08 05:34:08;;;;;;;4.27;1.23;;;;;;;-145.69;100.00;71434.22;5075673;28;20198;-75
2022/04/08 05:36:35;;;;;;;5.53;1.60;;;;;;;-145.69;100.00;71442.19;5075209;28;20198;-75
2022/04/08 05:39:01;;;;;;;5.63;1.50;;;;;;;-145.69;100.00;71440.19;5075606;28;20260;-75
2022/04/08 05:41:27;;;;;;;5.30;1.23;;;;;;;-145.69;100.00;71434.22;5075374;28;20203;-75
2022/04/08 05:43:55;;;;;;;8.93;1.70;;;;;;;-145.69;100.00;71432.25;5075618;28;20681;-75
2022/04/08 05:46:22;;;;;;;5.30;1.20;;;;;;;-145.69;100.00;71434.22;5075373;28;20276;-75
2022/04/08 05:48:48;;;;;;;7.93;1.47;;;;;;;-145.69;100.00;71438.22;5076076;28;20588;-75
2022/04/08 05:51:15;;;;;;;7.50;1.20;;;;;;;-145.69;100.00;71432.25;5075698;28;20527;-75
2022/04/08 05:53:41;;;;;;;3.70;1.30;;;;;;;-145.69;100.00;71424.28;5073534;28;20207;-75
2022/04/08 05:56:07;;;;;;;3.87;1.20;;;;;;;-145.69;100.00;71418.31;5055761;28;20196;-74
2022/04/08 05:58:34;;;;;;;5.00;1.30;;;;;;;-145.69;100.00;71428.25;5057371;28;20203;-75
2022/04/08 06:01:02;;;;;;;3.27;1.20;;;;;;;-145.69;100.00;71426.28;5075056;28;20238;-75
2022/04/08 06:03:28;;;;;;;2.93;1.27;;;;;;;-145.69;100.00;71424.28;5075499;28;20207;-74
2022/04/08 06:05:55;;;;;;;4.30;1.00;;;;;;;-145.69;100.00;71426.28;5075179;28;20681;-74
2022/04/08 06:08:22;;;;;;;4.43;1.47;;;;;;;-145.69;100.00;71420.31;5075245;28;20315;-75
2022/04/08 06:10:48;;;;;;;3.73;1.40;;;;;;;-145.69;100.00;71410.34;5075089;28;20650;-74
2022/04/08 06:13:16;;;;;;;2.90;1.40;;;;;;;-145.69;100.00;71418.31;5075040;28;20222;-74
2022/04/08 06:15:43;;;;;;;8.47;1.50;;;;;;;-145.69;100.00;71406.38;5075051;28;20293;-74
2022/04/08 06:18:13;;;;;;;7.27;1.83;;;;;;;-145.69;100.00;71390.47;5075252;28;20198;-74
2022/04/08 06:20:39;;;;;;;4.03;2.00;;;;;;;-145.69;100.00;71390.47;5075082;28;20213;-74
2022/04/08 06:23:05;;;;;;;4.40;1.40;;;;;;;-145.69;100.00;71386.47;5074667;28;20245;-74
2022/04/08 06:25:32;;;;;;;9.03;1.90;;;;;;;-145.69;100.00;71394.44;5074545;28;20202;-74
2022/04/08 06:28:02;;;;;;;5.47;1.97;;;;;;;-145.69;100.00;71394.44;5074782;28;20284;-74
2022/04/08 06:30:30;;;;;;;6.93;2.47;;;;;;;-145.69;100.00;71400.41;5074640;28;20649;-74
2022/04/08 06:32:56;;;;;;;8.93;2.00;;;;;;;-145.69;100.00;71392.44;5074995;28;20252;-74
2022/04/08 06:35:24;;;;;;;6.97;2.00;;;;;;;-145.69;100.00;71384.47;5074918;28;20203;-75
2022/04/08 06:37:50;;;;;;;6.40;1.43;;;;;;;-145.69;100.00;71370.56;5074941;28;20256;-74
2022/04/08 06:40:17;;;;;;;6.93;1.70;;;;;;;-145.69;100.00;71364.59;5074596;28;20558;-74
2022/04/08 06:42:43;;;;;;;5.23;1.40;;;;;;;-145.69;100.00;71366.56;5073183;28;20653;-74
2022/04/08 06:45:10;;;;;;;5.87;1.00;;;;;;;-145.69;100.00;71380.50;5074586;28;20199;-74
2022/04/08 06:47:45;;;;;;;1.30;1.00;;;;;;;-145.69;100.00;71386.47;5074483;28;20226;-74
2022/04/08 06:50:11;;;;;;;1.93;0.70;;;;;;;-145.69;100.00;71392.44;5074502;28;20253;-74
2022/04/08 06:52:39;;;;;;;3.87;1.07;;;;;;;-145.69;100.00;71392.44;5074366;28;20558;-74
2022/04/08 06:55:07;;;;;;;4.73;1.10;;;;;;;-145.69;100.00;71390.47;5074318;28;20199;-74
2022/04/08 06:57:34;;;;;;;4.83;0.73;;;;;;;-145.69;100.00;71390.47;5074192;28;20222;-74
2022/04/08 07:00:00;;;;;;;4.90;0.87;;;;;;;-145.69;100.00;71392.44;5074057;28;20677;-74
2022/04/08 07:02:27;;;;;;;2.10;0.70;;;;;;;-145.69;100.00;71390.47;5074111;28;20649;-74
2022/04/08 07:04:53;;;;;;;3.40;0.60;;;;;;;-145.69;100.00;71374.53;5074269;28;20234;-74
2022/04/08 07:07:20;;;;;;;3.07;0.60;;;;;;;-145.69;100.00;71370.56;5073973;28;20226;-74
2022/04/08 07:09:48;;;;;;;0.83;0.50;;;;;;;-145.69;100.00;71362.59;5073729;28;20277;-74
2022/04/08 07:12:14;;;;;;;1.47;0.60;;;;;;;-145.69;100.00;71358.63;5074095;28;20206;-74
2022/04/08 07:14:40;;;;;;;3.33;0.90;;;;;;;-145.69;100.00;71358.63;5073532;28;20238;-74
2022/04/08 07:17:07;;;;;;;0.60;0.60;;;;;;;-145.69;100.00;71350.66;5073847;28;20202;-74
2022/04/08 07:19:33;;;;;;;3.13;0.70;;;;;;;-145.69;100.00;71346.69;5073809;28;20255;-74
2022/04/08 07:22:00;;;;;;;3.03;0.80;;;;;;;-145.69;100.00;71350.66;5073771;28;20203;-74
2022/04/08 07:24:27;;;;;;;1.50;0.60;;;;;;;-145.69;100.00;71348.66;5073315;28;20277;-74
2022/04/08 07:26:55;;;;;;;2.50;0.60;;;;;;;-145.69;100.00;71322.81;5074041;28;20226;-74
2022/04/08 07:29:21;;;;;;;1.50;0.60;;;;;;;-145.69;100.00;71296.94;5073743;28;20194;-75
2022/04/08 07:31:48;;;;;;;0.63;0.60;;;;;;;-145.69;100.00;71306.88;5073749;28;20203;-75
2022/04/08 07:34:15;;;;;;;2.20;1.00;;;;;;;-145.69;100.00;71300.91;5073418;28;20203;-75
2022/04/08 07:36:41;;;;;;;1.83;0.70;;;;;;;-145.69;100.00;71271.06;5073528;28;20225;-74
2022/04/08 07:39:08;;;;;;;0.70;0.70;;;;;;;-145.69;100.00;71273.06;5073445;28;20206;-75
2022/04/08 07:41:34;;;;;;;0.73;0.70;;;;;;;-145.69;100.00;71267.09;5073511;28;20199;-74
2022/04/08 07:44:02;;;;;;;1.40;0.70;;;;;;;-145.69;100.00;71237.25;5072551;28;20206;-75
2022/04/08 07:46:28;;;;;;;0.50;0.50;;;;;;;-145.69;100.00;71225.31;5061668;28;20204;-74
2022/04/08 07:48:55;;;;;;;1.37;0.63;;;;;;;-145.69;100.00;71221.31;5056969;28;20215;-75
2022/04/08 07:51:21;;;;;;;0.57;0.57;;;;;;;-145.69;100.00;71207.38;5073178;28;20195;-75
2022/04/08 07:53:47;;;;;;;3.13;0.77;;;;;;;-145.69;100.00;71181.53;5073008;28;20600;-75
2022/04/08 07:56:14;;;;;;;0.70;0.60;;;;;;;-145.69;100.00;71191.47;5073106;28;20565;-74
2022/04/08 07:58:40;;;;;;;1.27;1.17;;;;;;;-145.69;100.00;71199.44;5073158;28;20222;-74
2022/04/08 08:01:09;;;;;;;2.87;2.40;;;;;;;-145.69;100.00;71159.63;5073251;28;20600;-75
2022/04/08 08:03:35;;;;;;;0.77;0.60;;;;;;;-145.69;100.00;71161.63;5073058;28;20257;-75
2022/04/08 08:06:04;;;;;;;2.10;0.70;;;;;;;-145.69;100.00;71119.84;5073225;28;20226;-74
2022/04/08 08:08:30;;;;;;;2.33;0.60;;;;;;;-145.69;100.00;71080.06;5072406;28;20227;-74
2022/04/08 08:10:57;;;;;;;2.67;0.70;;;;;;;-145.69;100.00;71060.16;5072927;28;20206;-74
2022/04/08 08:13:23;;;;;;;0.50;0.50;;;;;;;-145.69;100.00;71062.13;5072912;28;20230;-74
2022/04/08 08:15:50;;;;;;;0.83;0.80;;;;;;;-145.69;100.00;71034.28;5073006;28;20202;-74
2022/04/08 08:18:18;;;;;;;1.97;0.90;;;;;;;-145.69;100.00;70976.59;5056704;28;20257;-74
2022/04/08 08:20:45;;;;;;;2.00;0.70;;;;;;;-145.69;100.00;70970.63;5066110;28;20558;-75
2022/04/08 08:23:11;;;;;;;0.93;0.70;;;;;;;-145.69;100.00;70940.78;5052607;28;20554;-74
2022/04/08 08:25:37;;;;;;;1.73;0.63;;;;;;;-145.69;100.00;70958.69;5052805;28;20207;-75
2022/04/08 08:28:04;;;;;;;1.03;0.80;;;;;;;-145.69;100.00;70912.91;5052908;28;20624;-75
2022/04/08 08:30:31;;;;;;;1.20;0.60;;;;;;;-145.69;100.00;70881.09;5053041;28;20206;-75
2022/04/08 08:32:58;;;;;;;3.03;0.63;;;;;;;-145.69;100.00;70899.00;5052820;28;20539;-75
2022/04/08 08:35:27;;;;;;;0.40;0.40;;;;;;;-145.69;100.00;70899.00;5052668;28;20211;-75
2022/04/08 08:37:54;;;;;;;1.33;0.50;;;;;;;-145.69;100.00;70881.09;5052748;28;20199;-75
2022/04/08 08:40:20;;;;;;;2.57;0.77;;;;;;;-145.69;100.00;70900.97;5052406;28;20202;-74
2022/04/08 08:42:47;;;;;;;1.03;0.60;;;;;;;-145.69;100.00;70879.09;5052624;28;20670;-75
2022/04/08 08:45:15;;;;;;;1.20;0.67;;;;;;;-145.69;100.00;70809.47;5052742;28;20210;-75
2022/04/08 08:47:45;;;;;;;0.83;0.60;;;;;;;-145.69;100.00;70813.44;5051918;28;20238;-76
2022/04/08 08:50:12;;;;;;;1.33;0.80;;;;;;;-145.69;100.00;70771.66;5067963;28;20731;-76
2022/04/08 08:52:41;;;;;;;1.13;0.60;;;;;;;-145.69;100.00;70751.75;5072545;28;20666;-75
2022/04/08 08:55:08;;;;;;;0.87;0.70;;;;;;;-145.69;100.00;70729.88;5072692;28;20198;-75
2022/04/08 08:57:35;;;;;;;2.37;0.87;;;;;;;-145.69;100.00;70717.94;5072617;28;20199;-74
2022/04/08 09:00:07;;;;;;;0.73;0.60;;;;;;;-145.69;100.00;70668.19;5072509;28;20248;-76
2022/04/08 09:02:35;;;;;;;1.30;0.80;;;;;;;-145.69;100.00;70620.44;5072724;28;20193;-76
2022/04/08 09:05:11;;;;;;;1.73;0.80;;;;;;;-145.69;100.00;70602.56;5072714;28;20230;-76
2022/04/08 09:07:37;;;;;;;0.53;0.53;;;;;;;-145.69;100.00;70582.66;5072228;28;20226;-76
2022/04/08 09:10:06;;;;;;;1.30;0.80;;;;;;;-145.69;100.00;70530.94;5072133;28;20191;-75
2022/04/08 09:12:33;;;;;;;1.03;0.80;;;;;;;-145.69;100.00;70459.31;5072048;28;20588;-75
2022/04/08 09:15:01;;;;;;;4.77;2.20;;;;;;;-145.69;100.00;70427.47;5071777;28;20230;-75
2022/04/08 09:17:29;;;;;;;48.07;13.53;;;;;;;-145.69;97.20;70445.38;5072553;28;20203;-75
2022/04/08 09:19:57;;;;;;;9.37;2.70;;;;;;;-145.69;100.00;70467.28;5071984;28;20746;-76
2022/04/08 09:22:27;;;;;;;1.83;0.80;;;;;;;-145.69;100.00;70501.09;5072470;28;20198;-75
2022/04/08 09:24:53;;;;;;;1.70;0.57;;;;;;;-145.69;100.00;70515.00;5072347;28;20286;-76
2022/04/08 09:27:32;;;;;;;0.60;0.60;;;;;;;-145.69;100.00;70568.72;5072152;28;20199;-76
2022/04/08 09:29:58;;;;;;;1.30;0.50;;;;;;;-145.69;100.00;70558.78;5072453;28;20198;-75
2022/04/08 09:32:27;;;;;;;1.30;0.90;;;;;;;-145.69;100.00;70542.88;5072360;28;20199;-75
2022/04/08 09:34:53;;;;;;;2.80;0.97;;;;;;;-145.69;100.00;70522.97;5074029;28;20241;-75
2022/04/08 09:37:20;;;;;;;0.53;0.53;;;;;;;-145.69;100.00;70495.13;5075892;28;20203;-75
2022/04/08 09:39:57;;;;;;;0.73;0.50;;;;;;;-145.69;100.00;70522.97;5075261;28;20203;-75
2022/04/08 09:42:25;;;;;;;1.93;0.70;;;;;;;-145.69;100.00;70509.03;5075948;28;20202;-75
2022/04/08 09:44:52;;;;;;;1.47;0.80;;;;;;;-145.69;100.00;70550.81;5075224;28;20240;-76
2022/04/08 09:47:18;;;;;;;1.63;0.82;;;;;;;-145.69;100.00;70526.94;5074841;28;20437;-75
2022/04/08 09:49:45;;;;;;;2.37;1.00;;;;;;;-145.69;100.00;70530.94;5075488;28;20202;-75
2022/04/08 09:52:12;;;;;;;1.37;0.80;;;;;;;-145.69;100.00;70519.00;5075665;28;20199;-75
2022/04/08 09:54:43;;;;;;;2.63;0.90;;;;;;;-145.69;100.00;70507.06;5065228;28;20202;-75
2022/04/08 09:57:17;;;;;;;1.83;0.90;;;;;;;-145.69;100.00;70487.16;5054526;28;20436;-75
2022/04/08 09:59:48;;;;;;;1.23;0.93;;;;;;;-145.69;100.00;70495.13;5055502;28;20203;-75
2022/04/08 10:02:16;;;;;;;0.97;0.50;;;;;;;-145.69;100.00;70515.00;5055372;28;20199;-75
2022/04/08 10:04:43;;;;;;;1.90;0.80;;;;;;;-145.69;100.00;70511.03;5055152;28;20806;-75
2022/04/08 10:07:10;;;;;;;0.60;0.60;;;;;;;-145.69;100.00;70519.00;5055470;28;20238;-75
2022/04/08 10:09:50;;;;;;;40.00;9.60;;;;;;;-145.69;100.00;70522.97;5055332;28;20238;-75
2022/04/08 10:12:25;;;;;;;1.17;1.03;;;;;;;-145.69;100.00;70522.97;5055388;28;20294;-76
2022/04/08 10:14:59;;;;;;;1.43;0.70;;;;;;;-145.69;100.00;70546.84;5073909;28;20283;-75
2022/04/08 10:17:26;;;;;;;0.67;0.67;;;;;;;-145.69;100.00;70554.81;5074883;28;20194;-75
2022/04/08 10:19:52;;;;;;;0.87;0.70;;;;;;;-145.69;100.00;70538.88;5075192;28;20210;-76
2022/04/08 10:22:20;;;;;;;0.50;0.43;;;;;;;-145.69;100.00;70513.03;5075124;28;20199;-75
2022/04/08 10:24:54;;;;;;;0.50;0.43;;;;;;;-145.69;100.00;70520.97;5074464;28;20207;-74
2022/04/08 10:27:29;;;;;;;1.73;0.43;;;;;;;-145.69;100.00;70526.94;5074845;28;20198;-74
2022/04/08 10:29:58;;;;;;;0.53;0.50;;;;;;;-145.69;100.00;70515.00;5074626;28;20321;-74
2022/04/08 10:32:24;;;;;;;0.67;0.50;;;;;;;-145.69;100.00;70519.00;5074969;28;20203;-74
2022/04/08 10:34:51;;;;;;;0.40;0.40;;;;;;;-145.69;100.00;70517.00;5074850;28;20203;-74
2022/04/08 10:37:20;;;;;;;2.47;0.70;;;;;;;-145.69;100.00;70513.03;5074543;28;20221;-74
2022/04/08 10:39:56;;;;;;;0.60;0.60;;;;;;;-145.69;100.00;70507.06;5072748;28;20202;-74
2022/04/08 10:42:23;;;;;;;1.10;0.80;;;;;;;-145.69;100.00;70497.09;5072723;28;20202;-74
2022/04/08 10:44:50;;;;;;;1.17;0.60;;;;;;;-145.69;100.00;70465.28;5074306;28;20195;-74
2022/04/08 10:47:20;;;;;;;1.33;0.90;;;;;;;-145.69;100.00;70467.28;5074546;28;20202;-75
2022/04/08 10:49:50;;;;;;;0.87;0.73;;;;;;;-145.69;100.00;70475.22;5074482;28;20571;-74
2022/04/08 10:52:18;;;;;;;0.87;0.50;;;;;;;-145.69;100.00;70479.19;5074409;28;20203;-74
2022/04/08 10:54:45;;;;;;;1.50;0.87;;;;;;;-145.69;100.00;70483.19;5074049;28;20226;-74
2022/04/08 10:57:12;;;;;;;0.80;0.67;;;;;;;-145.69;100.00;70471.25;5072948;28;20203;-74
2022/04/08 10:59:39;;;;;;;1.17;0.70;;;;;;;-145.69;100.00;70471.25;5073955;28;20202;-74
2022/04/08 11:02:10;;;;;;;0.50;0.50;;;;;;;-145.69;100.00;70471.25;5074074;28;20685;-74
2022/04/08 11:04:38;;;;;;;1.37;1.07;;;;;;;-145.69;100.00;70451.34;5074477;28;20230;-75
2022/04/08 11:07:07;;;;;;;2.47;1.47;;;;;;;-145.69;100.00;70455.34;5074018;28;20205;-74
2022/04/08 11:09:34;;;;;;;1.70;1.33;;;;;;;-145.69;100.00;70427.47;5069053;28;20233;-74